sensor_id;sensor_type;location;lat;lon;timestamp;pressure;altitude;pressure_sealevel;temperature;humidity
48404;BME280;34202;52.536;6.042;2022-07-21T00:01:33;101847.89;;;22.66;68.89
48404;BME280;34202;52.536;6.042;2022-07-21T00:06:34;101851.11;;;22.58;69.31
48404;BME280;34202;52.536;6.042;2022-07-21T00:11:35;101840.14;;;22.50;69.87
48404;BME280;34202;52.536;6.042;2022-07-21T00:16:36;101827.42;;;22.43;70.21
48404;BME280;34202;52.536;6.042;2022-07-21T00:21:37;101812.70;;;22.36;70.83
48404;BME280;34202;52.536;6.042;2022-07-21T00:26:38;101810.25;;;22.28;71.38
48404;BME280;34202;52.536;6.042;2022-07-21T00:31:38;101808.66;;;22.20;71.73
48404;BME280;34202;52.536;6.042;2022-07-21T00:36:39;101809.04;;;22.12;72.09
48404;BME280;34202;52.536;6.042;2022-07-21T00:41:39;101810.08;;;22.07;72.84
48404;BME280;34202;52.536;6.042;2022-07-21T00:46:39;101814.91;;;21.97;73.57
48404;BME280;34202;52.536;6.042;2022-07-21T00:51:40;101819.42;;;21.87;73.95
48404;BME280;34202;52.536;6.042;2022-07-21T00:56:40;101821.60;;;21.78;74.63
48404;BME280;34202;52.536;6.042;2022-07-21T01:01:41;101827.30;;;21.70;74.94
48404;BME280;34202;52.536;6.042;2022-07-21T01:06:42;101820.38;;;21.63;75.20
48404;BME280;34202;52.536;6.042;2022-07-21T01:11:43;101820.13;;;21.58;75.34
48404;BME280;34202;52.536;6.042;2022-07-21T01:16:43;101818.22;;;21.56;75.64
48404;BME280;34202;52.536;6.042;2022-07-21T01:21:46;101816.66;;;21.55;75.56
48404;BME280;34202;52.536;6.042;2022-07-21T01:26:49;101814.20;;;21.55;75.71
48404;BME280;34202;52.536;6.042;2022-07-21T01:31:51;101809.75;;;21.55;75.57
48404;BME280;34202;52.536;6.042;2022-07-21T01:36:51;101811.18;;;21.55;75.67
48404;BME280;34202;52.536;6.042;2022-07-21T01:41:52;101806.46;;;21.52;75.98
48404;BME280;34202;52.536;6.042;2022-07-21T01:46:52;101797.52;;;21.48;75.93
48404;BME280;34202;52.536;6.042;2022-07-21T01:51:53;101792.63;;;21.45;76.12
48404;BME280;34202;52.536;6.042;2022-07-21T01:56:53;101789.80;;;21.43;76.13
48404;BME280;34202;52.536;6.042;2022-07-21T02:01:53;101775.09;;;21.36;75.93
48404;BME280;34202;52.536;6.042;2022-07-21T02:06:54;101766.71;;;21.31;75.86
48404;BME280;34202;52.536;6.042;2022-07-21T02:11:55;101765.00;;;21.29;76.09
48404;BME280;34202;52.536;6.042;2022-07-21T02:16:55;101769.67;;;21.26;76.26
48404;BME280;34202;52.536;6.042;2022-07-21T02:21:55;101776.36;;;21.20;76.38
48404;BME280;34202;52.536;6.042;2022-07-21T02:26:56;101787.41;;;21.16;76.44
48404;BME280;34202;52.536;6.042;2022-07-21T02:31:56;101796.35;;;21.12;77.18
48404;BME280;34202;52.536;6.042;2022-07-21T02:36:56;101800.48;;;21.10;77.37
48404;BME280;34202;52.536;6.042;2022-07-21T02:41:57;101806.34;;;21.09;77.86
48404;BME280;34202;52.536;6.042;2022-07-21T02:46:57;101799.49;;;21.06;78.25
48404;BME280;34202;52.536;6.042;2022-07-21T02:51:57;101790.46;;;21.06;78.59
48404;BME280;34202;52.536;6.042;2022-07-21T02:56:58;101774.39;;;21.04;78.68
48404;BME280;34202;52.536;6.042;2022-07-21T03:01:58;101771.94;;;21.04;78.82
48404;BME280;34202;52.536;6.042;2022-07-21T03:06:58;101762.55;;;21.04;78.63
48404;BME280;34202;52.536;6.042;2022-07-21T03:11:59;101756.55;;;21.03;78.59
48404;BME280;34202;52.536;6.042;2022-07-21T03:19:11;101753.35;;;21.04;79.07
48404;BME280;34202;52.536;6.042;2022-07-21T03:24:11;101756.98;;;21.00;78.82
48404;BME280;34202;52.536;6.042;2022-07-21T03:29:12;101753.86;;;20.97;78.87
48404;BME280;34202;52.536;6.042;2022-07-21T03:34:12;101747.45;;;20.91;79.16
48404;BME280;34202;52.536;6.042;2022-07-21T03:39:12;101747.10;;;20.82;78.89
48404;BME280;34202;52.536;6.042;2022-07-21T03:44:13;101744.95;;;20.75;78.78
48404;BME280;34202;52.536;6.042;2022-07-21T03:49:13;101749.34;;;20.69;78.85
48404;BME280;34202;52.536;6.042;2022-07-21T03:54:13;101746.09;;;20.63;78.72
48404;BME280;34202;52.536;6.042;2022-07-21T03:59:14;101741.92;;;20.58;78.98
48404;BME280;34202;52.536;6.042;2022-07-21T04:04:14;101743.23;;;20.55;78.99
48404;BME280;34202;52.536;6.042;2022-07-21T04:09:14;101741.92;;;20.49;79.19
48404;BME280;34202;52.536;6.042;2022-07-21T04:14:17;101739.77;;;20.42;79.12
48404;BME280;34202;52.536;6.042;2022-07-21T04:19:17;101739.16;;;20.37;79.29
48404;BME280;34202;52.536;6.042;2022-07-21T04:24:18;101742.75;;;20.34;79.41
48404;BME280;34202;52.536;6.042;2022-07-21T04:29:19;101748.62;;;20.33;79.74
48404;BME280;34202;52.536;6.042;2022-07-21T04:34:19;101745.81;;;20.32;79.84
48404;BME280;34202;52.536;6.042;2022-07-21T04:39:19;101750.80;;;20.29;80.15
48404;BME280;34202;52.536;6.042;2022-07-21T04:44:20;101745.02;;;20.26;80.35
48404;BME280;34202;52.536;6.042;2022-07-21T04:49:20;101751.82;;;20.23;80.40
48404;BME280;34202;52.536;6.042;2022-07-21T04:54:21;101756.52;;;20.16;81.00
48404;BME280;34202;52.536;6.042;2022-07-21T04:59:21;101759.61;;;20.12;81.19
48404;BME280;34202;52.536;6.042;2022-07-21T05:04:21;101758.08;;;20.09;81.40
48404;BME280;34202;52.536;6.042;2022-07-21T05:09:22;101758.64;;;20.06;81.57
48404;BME280;34202;52.536;6.042;2022-07-21T05:14:22;101760.36;;;20.01;81.96
48404;BME280;34202;52.536;6.042;2022-07-21T05:19:23;101756.70;;;19.97;82.29
48404;BME280;34202;52.536;6.042;2022-07-21T05:24:23;101748.85;;;19.92;82.26
48404;BME280;34202;52.536;6.042;2022-07-21T05:29:23;101742.17;;;19.89;82.62
48404;BME280;34202;52.536;6.042;2022-07-21T05:34:24;101731.62;;;19.87;82.69
48404;BME280;34202;52.536;6.042;2022-07-21T05:39:24;101713.23;;;19.88;82.82
48404;BME280;34202;52.536;6.042;2022-07-21T05:44:24;101700.00;;;19.87;82.88
48404;BME280;34202;52.536;6.042;2022-07-21T05:49:25;101684.98;;;19.88;83.01
48404;BME280;34202;52.536;6.042;2022-07-21T05:54:25;101654.91;;;19.89;82.87
48404;BME280;34202;52.536;6.042;2022-07-21T05:59:25;101643.40;;;19.91;82.99
48404;BME280;34202;52.536;6.042;2022-07-21T06:04:26;101634.03;;;19.91;83.23
48404;BME280;34202;52.536;6.042;2022-07-21T06:09:26;101639.16;;;19.91;83.07
48404;BME280;34202;52.536;6.042;2022-07-21T06:14:27;101687.52;;;19.94;83.36
48404;BME280;34202;52.536;6.042;2022-07-21T06:19:27;101712.30;;;20.00;83.98
48404;BME280;34202;52.536;6.042;2022-07-21T06:24:28;101727.38;;;20.06;84.11
48404;BME280;34202;52.536;6.042;2022-07-21T06:29:28;101742.95;;;20.15;84.50
48404;BME280;34202;52.536;6.042;2022-07-21T06:34:29;101744.52;;;20.25;84.43
48404;BME280;34202;52.536;6.042;2022-07-21T06:39:29;101744.84;;;20.36;84.54
48404;BME280;34202;52.536;6.042;2022-07-21T06:44:29;101766.59;;;20.44;84.57
48404;BME280;34202;52.536;6.042;2022-07-21T06:49:31;101779.26;;;20.47;84.13
48404;BME280;34202;52.536;6.042;2022-07-21T06:54:31;101759.92;;;20.51;83.70
48404;BME280;34202;52.536;6.042;2022-07-21T06:59:32;101752.79;;;20.54;83.77
48404;BME280;34202;52.536;6.042;2022-07-21T07:04:32;101759.61;;;20.58;83.77
48404;BME280;34202;52.536;6.042;2022-07-21T07:09:32;101752.65;;;20.62;83.38
48404;BME280;34202;52.536;6.042;2022-07-21T07:14:33;101756.65;;;20.66;83.27
48404;BME280;34202;52.536;6.042;2022-07-21T07:19:34;101756.38;;;20.71;83.30
48404;BME280;34202;52.536;6.042;2022-07-21T07:24:34;101750.92;;;20.77;83.29
48404;BME280;34202;52.536;6.042;2022-07-21T07:29:34;101755.17;;;20.86;83.74
48404;BME280;34202;52.536;6.042;2022-07-21T07:34:35;101765.14;;;20.91;83.54
48404;BME280;34202;52.536;6.042;2022-07-21T07:39:35;101764.41;;;20.92;83.43
48404;BME280;34202;52.536;6.042;2022-07-21T07:44:38;101764.70;;;20.95;83.58
48404;BME280;34202;52.536;6.042;2022-07-21T07:49:38;101761.90;;;21.10;84.18
48404;BME280;34202;52.536;6.042;2022-07-21T07:54:38;101766.17;;;21.31;84.85
48404;BME280;34202;52.536;6.042;2022-07-21T07:59:38;101765.62;;;21.48;84.62
48404;BME280;34202;52.536;6.042;2022-07-21T08:04:39;101756.98;;;21.62;84.06
48404;BME280;34202;52.536;6.042;2022-07-21T08:09:41;101753.55;;;21.79;84.03
48404;BME280;34202;52.536;6.042;2022-07-21T08:14:41;101744.45;;;22.01;83.89
48404;BME280;34202;52.536;6.042;2022-07-21T08:19:42;101739.84;;;22.21;83.25
48404;BME280;34202;52.536;6.042;2022-07-21T08:24:43;101736.25;;;22.49;83.36
48404;BME280;34202;52.536;6.042;2022-07-21T08:29:43;101736.77;;;22.86;82.99
48404;BME280;34202;52.536;6.042;2022-07-21T08:34:45;101731.86;;;23.18;81.80
48404;BME280;34202;52.536;6.042;2022-07-21T08:39:46;101721.86;;;23.42;80.13
48404;BME280;34202;52.536;6.042;2022-07-21T08:44:47;101727.98;;;23.61;78.71
48404;BME280;34202;52.536;6.042;2022-07-21T08:49:48;101721.20;;;23.78;77.91
48404;BME280;34202;52.536;6.042;2022-07-21T08:54:49;101724.10;;;23.97;77.51
48404;BME280;34202;52.536;6.042;2022-07-21T08:59:50;101727.77;;;24.09;76.44
48404;BME280;34202;52.536;6.042;2022-07-21T09:04:52;101736.35;;;24.18;75.94
48404;BME280;34202;52.536;6.042;2022-07-21T09:10:01;101742.92;;;24.23;75.15
48404;BME280;34202;52.536;6.042;2022-07-21T09:15:20;101748.23;;;24.29;74.73
48404;BME280;34202;52.536;6.042;2022-07-21T09:20:23;101754.78;;;24.25;74.01
48404;BME280;34202;52.536;6.042;2022-07-21T09:30:59;101750.43;;;24.22;73.57
48404;BME280;34202;52.536;6.042;2022-07-21T09:41:17;101752.98;;;24.26;72.98
48404;BME280;34202;52.536;6.042;2022-07-21T09:46:25;101755.14;;;24.25;72.67
48404;BME280;34202;52.536;6.042;2022-07-21T09:51:35;101756.57;;;24.25;72.01
48404;BME280;34202;52.536;6.042;2022-07-21T09:56:39;101760.52;;;24.13;71.52
48404;BME280;34202;52.536;6.042;2022-07-21T10:01:41;101761.91;;;24.04;71.47
48404;BME280;34202;52.536;6.042;2022-07-21T10:06:42;101766.27;;;23.96;71.17
48404;BME280;34202;52.536;6.042;2022-07-21T10:11:43;101771.29;;;23.85;71.19
48404;BME280;34202;52.536;6.042;2022-07-21T10:16:43;101778.92;;;23.80;71.51
48404;BME280;34202;52.536;6.042;2022-07-21T10:27:16;101772.79;;;23.66;71.59
48404;BME280;34202;52.536;6.042;2022-07-21T10:32:19;101768.01;;;23.60;71.70
48404;BME280;34202;52.536;6.042;2022-07-21T10:42:39;101769.84;;;23.53;72.19
48404;BME280;34202;52.536;6.042;2022-07-21T10:47:40;101774.20;;;23.44;72.33
48404;BME280;34202;52.536;6.042;2022-07-21T10:57:46;101775.89;;;23.25;72.92
48404;BME280;34202;52.536;6.042;2022-07-21T11:02:53;101783.49;;;23.14;73.55
48404;BME280;34202;52.536;6.042;2022-07-21T11:08:14;101785.48;;;23.01;73.96
48404;BME280;34202;52.536;6.042;2022-07-21T11:13:15;101783.52;;;22.89;74.46
48404;BME280;34202;52.536;6.042;2022-07-21T11:18:21;101780.61;;;22.79;74.97
48404;BME280;34202;52.536;6.042;2022-07-21T11:23:21;101775.55;;;22.70;75.40
48404;BME280;34202;52.536;6.042;2022-07-21T11:28:22;101773.66;;;22.56;75.80
48404;BME280;34202;52.536;6.042;2022-07-21T11:33:22;101781.27;;;22.44;76.54
48404;BME280;34202;52.536;6.042;2022-07-21T11:38:22;101784.98;;;22.38;77.26
48404;BME280;34202;52.536;6.042;2022-07-21T11:43:42;101792.23;;;22.32;77.51
48404;BME280;34202;52.536;6.042;2022-07-21T11:48:43;101792.77;;;22.24;77.81
48404;BME280;34202;52.536;6.042;2022-07-21T11:53:45;101796.73;;;22.14;77.85
48404;BME280;34202;52.536;6.042;2022-07-21T11:58:45;101799.80;;;21.99;77.92
48404;BME280;34202;52.536;6.042;2022-07-21T12:03:47;101800.52;;;21.85;78.17
48404;BME280;34202;52.536;6.042;2022-07-21T12:08:48;101806.10;;;21.74;78.53
48404;BME280;34202;52.536;6.042;2022-07-21T12:13:57;101808.13;;;21.71;79.18
48404;BME280;34202;52.536;6.042;2022-07-21T12:19:12;101802.32;;;21.69;79.61
48404;BME280;34202;52.536;6.042;2022-07-21T12:24:14;101800.13;;;21.72;80.05
48404;BME280;34202;52.536;6.042;2022-07-21T12:29:28;101809.08;;;21.76;80.15
48404;BME280;34202;52.536;6.042;2022-07-21T12:34:29;101813.16;;;21.75;80.04
48404;BME280;34202;52.536;6.042;2022-07-21T12:39:30;101810.25;;;21.71;80.23
48404;BME280;34202;52.536;6.042;2022-07-21T12:44:48;101811.71;;;21.70;80.22
48404;BME280;34202;52.536;6.042;2022-07-21T12:50:05;101812.61;;;21.69;79.99
48404;BME280;34202;52.536;6.042;2022-07-21T12:55:07;101819.06;;;21.65;79.77
48404;BME280;34202;52.536;6.042;2022-07-21T13:00:08;101820.55;;;21.63;79.89
48404;BME280;34202;52.536;6.042;2022-07-21T13:05:08;101819.13;;;21.63;79.71
48404;BME280;34202;52.536;6.042;2022-07-21T13:10:09;101818.70;;;21.66;79.96
48404;BME280;34202;52.536;6.042;2022-07-21T13:15:10;101824.41;;;21.64;79.74
48404;BME280;34202;52.536;6.042;2022-07-21T13:20:11;101823.46;;;21.59;79.49
48404;BME280;34202;52.536;6.042;2022-07-21T13:25:13;101822.79;;;21.58;79.49
48404;BME280;34202;52.536;6.042;2022-07-21T13:30:14;101821.55;;;21.58;79.62
48404;BME280;34202;52.536;6.042;2022-07-21T13:35:15;101823.54;;;21.56;79.77
48404;BME280;34202;52.536;6.042;2022-07-21T13:40:15;101829.23;;;21.55;79.85
48404;BME280;34202;52.536;6.042;2022-07-21T13:45:16;101835.65;;;21.53;80.10
48404;BME280;34202;52.536;6.042;2022-07-21T13:50:16;101833.44;;;21.50;80.05
48404;BME280;34202;52.536;6.042;2022-07-21T13:55:16;101834.23;;;21.45;80.35
48404;BME280;34202;52.536;6.042;2022-07-21T14:00:17;101837.29;;;21.42;80.26
48404;BME280;34202;52.536;6.042;2022-07-21T14:05:18;101842.34;;;21.37;80.51
48404;BME280;34202;52.536;6.042;2022-07-21T14:10:18;101846.41;;;21.30;80.44
48404;BME280;34202;52.536;6.042;2022-07-21T14:15:18;101847.20;;;21.18;79.92
48404;BME280;34202;52.536;6.042;2022-07-21T14:20:19;101846.02;;;21.07;80.07
48404;BME280;34202;52.536;6.042;2022-07-21T14:25:19;101849.16;;;21.00;80.31
48404;BME280;34202;52.536;6.042;2022-07-21T14:30:20;101856.89;;;20.96;80.31
48404;BME280;34202;52.536;6.042;2022-07-21T14:35:20;101859.06;;;20.93;80.67
48404;BME280;34202;52.536;6.042;2022-07-21T14:40:22;101859.82;;;20.90;80.79
48404;BME280;34202;52.536;6.042;2022-07-21T14:45:23;101859.90;;;20.86;80.99
48404;BME280;34202;52.536;6.042;2022-07-21T14:50:25;101862.44;;;20.83;81.27
48404;BME280;34202;52.536;6.042;2022-07-21T14:55:26;101860.76;;;20.78;81.68
48404;BME280;34202;52.536;6.042;2022-07-21T15:00:28;101860.92;;;20.79;81.89
48404;BME280;34202;52.536;6.042;2022-07-21T15:05:28;101855.90;;;20.83;82.50
48404;BME280;34202;52.536;6.042;2022-07-21T15:10:29;101853.75;;;20.84;82.63
48404;BME280;34202;52.536;6.042;2022-07-21T15:15:29;101851.95;;;20.85;82.65
48404;BME280;34202;52.536;6.042;2022-07-21T15:20:29;101859.48;;;20.89;82.62
48404;BME280;34202;52.536;6.042;2022-07-21T15:25:30;101859.84;;;20.89;82.36
48404;BME280;34202;52.536;6.042;2022-07-21T15:30:31;101855.02;;;20.91;82.32
48404;BME280;34202;52.536;6.042;2022-07-21T15:35:32;101854.34;;;20.90;82.57
48404;BME280;34202;52.536;6.042;2022-07-21T15:40:32;101855.55;;;20.91;82.67
48404;BME280;34202;52.536;6.042;2022-07-21T15:45:32;101860.13;;;20.92;82.87
48404;BME280;34202;52.536;6.042;2022-07-21T15:50:33;101857.09;;;20.94;83.18
48404;BME280;34202;52.536;6.042;2022-07-21T15:55:34;101855.70;;;20.93;83.34
48404;BME280;34202;52.536;6.042;2022-07-21T16:00:34;101861.61;;;20.90;83.20
48404;BME280;34202;52.536;6.042;2022-07-21T16:05:35;101864.14;;;20.86;83.09
48404;BME280;34202;52.536;6.042;2022-07-21T16:10:35;101865.41;;;20.84;83.47
48404;BME280;34202;52.536;6.042;2022-07-21T16:15:36;101868.73;;;20.78;83.63
48404;BME280;34202;52.536;6.042;2022-07-21T16:20:36;101876.52;;;20.69;83.54
48404;BME280;34202;52.536;6.042;2022-07-21T16:25:36;101874.51;;;20.62;83.67
48404;BME280;34202;52.536;6.042;2022-07-21T16:30:37;101874.72;;;20.59;83.55
48404;BME280;34202;52.536;6.042;2022-07-21T16:35:37;101876.31;;;20.58;83.96
48404;BME280;34202;52.536;6.042;2022-07-21T16:40:38;101885.96;;;20.53;84.31
48404;BME280;34202;52.536;6.042;2022-07-21T16:45:38;101888.71;;;20.47;84.49
48404;BME280;34202;52.536;6.042;2022-07-21T16:50:39;101888.15;;;20.39;84.84
48404;BME280;34202;52.536;6.042;2022-07-21T16:55:39;101888.98;;;20.32;85.17
48404;BME280;34202;52.536;6.042;2022-07-21T17:00:40;101893.67;;;20.26;85.60
48404;BME280;34202;52.536;6.042;2022-07-21T17:05:40;101901.45;;;20.05;85.84
48404;BME280;34202;52.536;6.042;2022-07-21T17:10:40;101910.77;;;19.72;86.00
48404;BME280;34202;52.536;6.042;2022-07-21T17:15:41;101915.73;;;19.43;87.07
48404;BME280;34202;52.536;6.042;2022-07-21T17:20:41;101925.48;;;19.26;87.25
48404;BME280;34202;52.536;6.042;2022-07-21T17:25:42;101936.42;;;19.10;88.11
48404;BME280;34202;52.536;6.042;2022-07-21T17:30:42;101932.42;;;18.90;88.83
48404;BME280;34202;52.536;6.042;2022-07-21T17:35:43;101942.40;;;18.76;89.12
48404;BME280;34202;52.536;6.042;2022-07-21T17:40:43;101948.36;;;18.61;89.58
48404;BME280;34202;52.536;6.042;2022-07-21T17:45:44;101959.04;;;18.50;90.30
48404;BME280;34202;52.536;6.042;2022-07-21T17:50:44;101968.48;;;18.37;90.14
48404;BME280;34202;52.536;6.042;2022-07-21T17:55:44;101976.86;;;18.23;90.44
48404;BME280;34202;52.536;6.042;2022-07-21T18:00:45;101983.14;;;18.07;90.75
48404;BME280;34202;52.536;6.042;2022-07-21T18:05:45;101988.15;;;17.94;91.12
48404;BME280;34202;52.536;6.042;2022-07-21T18:10:46;101995.05;;;17.87;91.55
48404;BME280;34202;52.536;6.042;2022-07-21T18:15:47;102002.45;;;17.85;91.74
48404;BME280;34202;52.536;6.042;2022-07-21T18:20:48;102006.14;;;17.87;91.65
48404;BME280;34202;52.536;6.042;2022-07-21T18:25:48;102010.20;;;17.85;91.52
48404;BME280;34202;52.536;6.042;2022-07-21T18:30:51;102018.49;;;17.79;91.58
48404;BME280;34202;52.536;6.042;2022-07-21T18:35:51;102022.92;;;17.70;91.94
48404;BME280;34202;52.536;6.042;2022-07-21T18:40:52;102027.73;;;17.53;91.82
48404;BME280;34202;52.536;6.042;2022-07-21T18:45:52;102027.42;;;17.40;92.44
48404;BME280;34202;52.536;6.042;2022-07-21T18:50:52;102039.91;;;17.35;92.66
48404;BME280;34202;52.536;6.042;2022-07-21T18:55:53;102049.61;;;17.31;92.92
48404;BME280;34202;52.536;6.042;2022-07-21T19:00:53;102056.48;;;17.31;93.06
48404;BME280;34202;52.536;6.042;2022-07-21T19:05:53;102055.23;;;17.35;93.17
48404;BME280;34202;52.536;6.042;2022-07-21T19:10:54;102057.52;;;17.38;93.14
48404;BME280;34202;52.536;6.042;2022-07-21T19:15:54;102059.98;;;17.33;92.88
48404;BME280;34202;52.536;6.042;2022-07-21T19:20:54;102071.98;;;17.25;92.78
48404;BME280;34202;52.536;6.042;2022-07-21T19:25:55;102073.73;;;17.21;92.85
48404;BME280;34202;52.536;6.042;2022-07-21T19:30:55;102081.48;;;17.13;92.92
48404;BME280;34202;52.536;6.042;2022-07-21T19:35:56;102090.45;;;17.06;93.18
48404;BME280;34202;52.536;6.042;2022-07-21T19:40:56;102103.12;;;17.07;93.25
48404;BME280;34202;52.536;6.042;2022-07-21T19:45:57;102109.27;;;17.10;93.37
48404;BME280;34202;52.536;6.042;2022-07-21T19:50:58;102115.79;;;17.14;93.20
48404;BME280;34202;52.536;6.042;2022-07-21T19:55:59;102121.40;;;17.13;92.96
48404;BME280;34202;52.536;6.042;2022-07-21T20:01:00;102127.39;;;17.12;92.68
48404;BME280;34202;52.536;6.042;2022-07-21T20:06:00;102130.20;;;17.06;92.24
48404;BME280;34202;52.536;6.042;2022-07-21T20:11:01;102129.48;;;16.97;92.19
48404;BME280;34202;52.536;6.042;2022-07-21T20:16:02;102137.06;;;16.90;92.23
48404;BME280;34202;52.536;6.042;2022-07-21T20:21:04;102139.66;;;16.83;92.24
48404;BME280;34202;52.536;6.042;2022-07-21T20:26:05;102139.12;;;16.82;92.38
48404;BME280;34202;52.536;6.042;2022-07-21T20:31:05;102139.51;;;16.87;92.49
48404;BME280;34202;52.536;6.042;2022-07-21T20:36:06;102137.41;;;16.91;92.41
48404;BME280;34202;52.536;6.042;2022-07-21T20:41:06;102130.20;;;16.94;92.21
48404;BME280;34202;52.536;6.042;2022-07-21T20:46:07;102131.60;;;16.93;91.79
48404;BME280;34202;52.536;6.042;2022-07-21T20:51:10;102138.63;;;16.87;91.58
48404;BME280;34202;52.536;6.042;2022-07-21T20:56:10;102137.21;;;16.85;91.81
48404;BME280;34202;52.536;6.042;2022-07-21T21:01:10;102139.16;;;16.87;91.87
48404;BME280;34202;52.536;6.042;2022-07-21T21:06:11;102140.37;;;16.84;91.71
48404;BME280;34202;52.536;6.042;2022-07-21T21:11:12;102149.66;;;16.80;91.59
48404;BME280;34202;52.536;6.042;2022-07-21T21:16:12;102155.46;;;16.77;91.62
48404;BME280;34202;52.536;6.042;2022-07-21T21:21:13;102165.13;;;16.79;91.78
48404;BME280;34202;52.536;6.042;2022-07-21T21:26:13;102161.80;;;16.81;91.78
48404;BME280;34202;52.536;6.042;2022-07-21T21:31:14;102163.90;;;16.81;91.60
48404;BME280;34202;52.536;6.042;2022-07-21T21:36:14;102172.52;;;16.80;91.69
48404;BME280;34202;52.536;6.042;2022-07-21T21:41:14;102168.86;;;16.83;91.65
48404;BME280;34202;52.536;6.042;2022-07-21T21:46:15;102173.91;;;16.78;91.20
48404;BME280;34202;52.536;6.042;2022-07-21T21:51:15;102178.66;;;16.73;91.14
48404;BME280;34202;52.536;6.042;2022-07-21T21:56:16;102181.28;;;16.74;91.35
48404;BME280;34202;52.536;6.042;2022-07-21T22:01:16;102182.16;;;16.74;91.27
48404;BME280;34202;52.536;6.042;2022-07-21T22:06:16;102182.69;;;16.74;91.18
48404;BME280;34202;52.536;6.042;2022-07-21T22:11:17;102186.04;;;16.73;91.05
48404;BME280;34202;52.536;6.042;2022-07-21T22:16:17;102191.29;;;16.71;91.01
48404;BME280;34202;52.536;6.042;2022-07-21T22:21:17;102197.81;;;16.70;90.92
48404;BME280;34202;52.536;6.042;2022-07-21T22:26:19;102192.88;;;16.68;90.90
48404;BME280;34202;52.536;6.042;2022-07-21T22:31:19;102196.39;;;16.68;90.77
48404;BME280;34202;52.536;6.042;2022-07-21T22:36:20;102200.09;;;16.68;90.65
48404;BME280;34202;52.536;6.042;2022-07-21T22:41:20;102200.79;;;16.69;90.61
48404;BME280;34202;52.536;6.042;2022-07-21T22:46:20;102200.80;;;16.70;90.50
48404;BME280;34202;52.536;6.042;2022-07-21T22:51:21;102203.24;;;16.67;90.32
48404;BME280;34202;52.536;6.042;2022-07-21T22:56:21;102204.65;;;16.67;90.42
48404;BME280;34202;52.536;6.042;2022-07-21T23:01:21;102203.94;;;16.64;90.21
48404;BME280;34202;52.536;6.042;2022-07-21T23:06:22;102199.70;;;16.57;90.05
48404;BME280;34202;52.536;6.042;2022-07-21T23:11:22;102203.89;;;16.51;90.16
48404;BME280;34202;52.536;6.042;2022-07-21T23:16:22;102199.47;;;16.43;90.10
48404;BME280;34202;52.536;6.042;2022-07-21T23:21:23;102201.02;;;16.36;90.24
48404;BME280;34202;52.536;6.042;2022-07-21T23:26:24;102199.78;;;16.34;90.39
48404;BME280;34202;52.536;6.042;2022-07-21T23:31:24;102203.49;;;16.39;90.56
48404;BME280;34202;52.536;6.042;2022-07-21T23:36:25;102200.33;;;16.40;90.51
48404;BME280;34202;52.536;6.042;2022-07-21T23:41:25;102204.89;;;16.39;90.38
48404;BME280;34202;52.536;6.042;2022-07-21T23:46:26;102206.83;;;16.37;90.24
48404;BME280;34202;52.536;6.042;2022-07-21T23:51:26;102210.52;;;16.36;90.23
48404;BME280;34202;52.536;6.042;2022-07-21T23:56:27;102216.66;;;16.37;90.27
